sensor_id;sensor_type;location;lat;lon;timestamp;P1;durP1;ratioP1;P2;durP2;ratioP2
25023;SDS011;13033;50.936;5.334;2023-04-01T00:00:05;5.70;;;1.17;;
25023;SDS011;13033;50.936;5.334;2023-04-01T00:02:31;5.80;;;0.80;;
25023;SDS011;13033;50.936;5.334;2023-04-01T00:04:57;2.40;;;0.60;;
25023;SDS011;13033;50.936;5.334;2023-04-01T00:07:23;5.38;;;0.82;;
25023;SDS011;13033;50.936;5.334;2023-04-01T00:09:48;4.60;;;1.30;;
25023;SDS011;13033;50.936;5.334;2023-04-01T00:12:14;2.70;;;0.93;;
25023;SDS011;13033;50.936;5.334;2023-04-01T00:14:40;5.18;;;0.93;;
25023;SDS011;13033;50.936;5.334;2023-04-01T00:17:06;2.08;;;0.80;;
25023;SDS011;13033;50.936;5.334;2023-04-01T00:19:31;2.17;;;0.70;;
25023;SDS011;13033;50.936;5.334;2023-04-01T00:21:57;2.28;;;0.80;;
25023;SDS011;13033;50.936;5.334;2023-04-01T00:24:23;5.13;;;1.08;;
25023;SDS011;13033;50.936;5.334;2023-04-01T00:26:49;2.78;;;0.70;;
25023;SDS011;13033;50.936;5.334;2023-04-01T00:29:15;3.67;;;1.15;;
25023;SDS011;13033;50.936;5.334;2023-04-01T00:31:40;3.25;;;0.80;;
25023;SDS011;13033;50.936;5.334;2023-04-01T00:34:06;3.60;;;1.10;;
25023;SDS011;13033;50.936;5.334;2023-04-01T00:36:32;1.75;;;0.60;;
25023;SDS011;13033;50.936;5.334;2023-04-01T00:38:57;3.42;;;0.90;;
25023;SDS011;13033;50.936;5.334;2023-04-01T00:41:26;5.40;;;0.90;;
25023;SDS011;13033;50.936;5.334;2023-04-01T00:44:11;2.65;;;0.80;;
25023;SDS011;13033;50.936;5.334;2023-04-01T00:46:41;3.97;;;1.17;;
25023;SDS011;13033;50.936;5.334;2023-04-01T00:49:07;5.10;;;0.90;;
25023;SDS011;13033;50.936;5.334;2023-04-01T00:51:33;5.22;;;0.95;;
25023;SDS011;13033;50.936;5.334;2023-04-01T00:54:01;2.95;;;0.80;;
25023;SDS011;13033;50.936;5.334;2023-04-01T00:59:00;4.95;;;1.08;;
25023;SDS011;13033;50.936;5.334;2023-04-01T01:01:33;4.95;;;0.80;;
25023;SDS011;13033;50.936;5.334;2023-04-01T01:04:00;2.95;;;0.95;;
25023;SDS011;13033;50.936;5.334;2023-04-01T01:12:11;2.63;;;1.10;;
25023;SDS011;13033;50.936;5.334;2023-04-01T01:14:45;5.03;;;1.15;;
25023;SDS011;13033;50.936;5.334;2023-04-01T01:20:40;3.97;;;1.70;;
25023;SDS011;13033;50.936;5.334;2023-04-01T01:34:24;7.30;;;1.63;;
25023;SDS011;13033;50.936;5.334;2023-04-01T01:37:06;4.18;;;1.20;;
25023;SDS011;13033;50.936;5.334;2023-04-01T01:39:35;4.88;;;1.58;;
25023;SDS011;13033;50.936;5.334;2023-04-01T01:42:06;3.83;;;1.00;;
25023;SDS011;13033;50.936;5.334;2023-04-01T01:44:36;3.85;;;1.30;;
25023;SDS011;13033;50.936;5.334;2023-04-01T01:47:04;5.85;;;1.08;;
25023;SDS011;13033;50.936;5.334;2023-04-01T01:49:31;3.55;;;1.05;;
25023;SDS011;13033;50.936;5.334;2023-04-01T01:51:58;4.38;;;0.95;;
25023;SDS011;13033;50.936;5.334;2023-04-01T01:54:24;5.50;;;0.73;;
25023;SDS011;13033;50.936;5.334;2023-04-01T01:56:51;2.25;;;0.80;;
25023;SDS011;13033;50.936;5.334;2023-04-01T02:01:50;2.22;;;0.85;;
25023;SDS011;13033;50.936;5.334;2023-04-01T02:04:18;2.80;;;0.80;;
25023;SDS011;13033;50.936;5.334;2023-04-01T02:06:50;3.42;;;1.20;;
25023;SDS011;13033;50.936;5.334;2023-04-01T02:09:26;3.17;;;1.00;;
25023;SDS011;13033;50.936;5.334;2023-04-01T02:11:57;4.25;;;1.50;;
25023;SDS011;13033;50.936;5.334;2023-04-01T02:14:28;3.65;;;1.10;;
25023;SDS011;13033;50.936;5.334;2023-04-01T02:17:05;3.03;;;1.17;;
25023;SDS011;13033;50.936;5.334;2023-04-01T02:19:38;3.42;;;1.33;;
25023;SDS011;13033;50.936;5.334;2023-04-01T02:22:06;1.77;;;1.35;;
25023;SDS011;13033;50.936;5.334;2023-04-01T02:24:36;5.78;;;1.40;;
25023;SDS011;13033;50.936;5.334;2023-04-01T02:27:05;4.40;;;1.20;;
25023;SDS011;13033;50.936;5.334;2023-04-01T02:29:31;2.28;;;1.40;;
25023;SDS011;13033;50.936;5.334;2023-04-01T02:31:56;2.72;;;1.50;;
25023;SDS011;13033;50.936;5.334;2023-04-01T02:34:24;3.80;;;1.38;;
25023;SDS011;13033;50.936;5.334;2023-04-01T02:36:51;3.78;;;1.23;;
25023;SDS011;13033;50.936;5.334;2023-04-01T02:39:18;1.50;;;1.08;;
25023;SDS011;13033;50.936;5.334;2023-04-01T02:41:44;2.20;;;1.02;;
25023;SDS011;13033;50.936;5.334;2023-04-01T02:44:11;1.65;;;1.00;;
25023;SDS011;13033;50.936;5.334;2023-04-01T02:46:38;2.67;;;1.35;;
25023;SDS011;13033;50.936;5.334;2023-04-01T02:49:04;1.63;;;1.00;;
25023;SDS011;13033;50.936;5.334;2023-04-01T02:51:30;3.72;;;1.40;;
25023;SDS011;13033;50.936;5.334;2023-04-01T02:53:57;3.55;;;1.40;;
25023;SDS011;13033;50.936;5.334;2023-04-01T02:56:22;2.17;;;1.40;;
25023;SDS011;13033;50.936;5.334;2023-04-01T02:58:48;2.20;;;1.52;;
25023;SDS011;13033;50.936;5.334;2023-04-01T03:01:14;1.90;;;1.40;;
25023;SDS011;13033;50.936;5.334;2023-04-01T03:03:39;3.33;;;1.63;;
25023;SDS011;13033;50.936;5.334;2023-04-01T03:06:09;5.35;;;1.83;;
25023;SDS011;13033;50.936;5.334;2023-04-01T03:08:36;2.20;;;1.33;;
25023;SDS011;13033;50.936;5.334;2023-04-01T03:11:02;2.65;;;1.73;;
25023;SDS011;13033;50.936;5.334;2023-04-01T03:13:28;2.65;;;1.40;;
25023;SDS011;13033;50.936;5.334;2023-04-01T03:15:54;3.72;;;1.60;;
25023;SDS011;13033;50.936;5.334;2023-04-01T03:18:20;2.53;;;1.50;;
25023;SDS011;13033;50.936;5.334;2023-04-01T03:20:46;3.13;;;1.60;;
25023;SDS011;13033;50.936;5.334;2023-04-01T03:23:12;3.97;;;1.63;;
25023;SDS011;13033;50.936;5.334;2023-04-01T03:25:37;3.15;;;1.73;;
25023;SDS011;13033;50.936;5.334;2023-04-01T03:28:03;3.40;;;2.13;;
25023;SDS011;13033;50.936;5.334;2023-04-01T03:30:29;2.78;;;1.80;;
25023;SDS011;13033;50.936;5.334;2023-04-01T03:32:56;2.60;;;1.58;;
25023;SDS011;13033;50.936;5.334;2023-04-01T03:35:23;2.55;;;1.33;;
25023;SDS011;13033;50.936;5.334;2023-04-01T03:37:50;1.58;;;1.20;;
25023;SDS011;13033;50.936;5.334;2023-04-01T03:40:16;3.75;;;1.20;;
25023;SDS011;13033;50.936;5.334;2023-04-01T03:42:42;3.75;;;2.00;;
25023;SDS011;13033;50.936;5.334;2023-04-01T03:45:08;2.58;;;1.80;;
25023;SDS011;13033;50.936;5.334;2023-04-01T03:47:34;3.72;;;2.40;;
25023;SDS011;13033;50.936;5.334;2023-04-01T03:50:00;5.10;;;2.30;;
25023;SDS011;13033;50.936;5.334;2023-04-01T03:52:26;3.85;;;2.20;;
25023;SDS011;13033;50.936;5.334;2023-04-01T03:54:52;3.40;;;2.30;;
25023;SDS011;13033;50.936;5.334;2023-04-01T03:57:17;5.22;;;2.50;;
25023;SDS011;13033;50.936;5.334;2023-04-01T03:59:43;7.13;;;2.70;;
25023;SDS011;13033;50.936;5.334;2023-04-01T04:02:08;5.75;;;2.80;;
25023;SDS011;13033;50.936;5.334;2023-04-01T04:04:34;2.92;;;2.33;;
25023;SDS011;13033;50.936;5.334;2023-04-01T04:07:00;4.60;;;2.40;;
25023;SDS011;13033;50.936;5.334;2023-04-01T04:09:26;4.93;;;2.38;;
25023;SDS011;13033;50.936;5.334;2023-04-01T04:11:52;3.85;;;2.45;;
25023;SDS011;13033;50.936;5.334;2023-04-01T04:14:17;9.43;;;3.00;;
25023;SDS011;13033;50.936;5.334;2023-04-01T04:16:43;3.95;;;2.63;;
25023;SDS011;13033;50.936;5.334;2023-04-01T04:19:09;6.55;;;2.78;;
25023;SDS011;13033;50.936;5.334;2023-04-01T04:21:35;6.43;;;2.55;;
25023;SDS011;13033;50.936;5.334;2023-04-01T04:24:00;4.70;;;2.67;;
25023;SDS011;13033;50.936;5.334;2023-04-01T04:26:27;3.80;;;2.22;;
25023;SDS011;13033;50.936;5.334;2023-04-01T04:28:53;6.75;;;3.22;;
25023;SDS011;13033;50.936;5.334;2023-04-01T04:31:20;7.93;;;3.17;;
25023;SDS011;13033;50.936;5.334;2023-04-01T04:33:47;5.80;;;2.47;;
25023;SDS011;13033;50.936;5.334;2023-04-01T04:36:13;8.25;;;3.33;;
25023;SDS011;13033;50.936;5.334;2023-04-01T04:38:39;7.55;;;3.60;;
25023;SDS011;13033;50.936;5.334;2023-04-01T04:41:09;7.72;;;3.78;;
25023;SDS011;13033;50.936;5.334;2023-04-01T04:43:36;8.90;;;3.88;;
25023;SDS011;13033;50.936;5.334;2023-04-01T04:46:06;9.20;;;3.92;;
25023;SDS011;13033;50.936;5.334;2023-04-01T04:48:33;8.05;;;4.20;;
25023;SDS011;13033;50.936;5.334;2023-04-01T04:50:59;11.70;;;4.80;;
25023;SDS011;13033;50.936;5.334;2023-04-01T04:53:25;10.20;;;5.35;;
25023;SDS011;13033;50.936;5.334;2023-04-01T04:55:51;9.00;;;4.22;;
25023;SDS011;13033;50.936;5.334;2023-04-01T04:58:17;11.63;;;4.95;;
25023;SDS011;13033;50.936;5.334;2023-04-01T05:00:43;9.63;;;5.55;;
25023;SDS011;13033;50.936;5.334;2023-04-01T05:03:09;11.70;;;6.13;;
25023;SDS011;13033;50.936;5.334;2023-04-01T05:05:36;11.98;;;5.82;;
25023;SDS011;13033;50.936;5.334;2023-04-01T05:08:02;14.63;;;5.97;;
25023;SDS011;13033;50.936;5.334;2023-04-01T05:10:28;12.60;;;6.75;;
25023;SDS011;13033;50.936;5.334;2023-04-01T05:12:55;12.18;;;6.43;;
25023;SDS011;13033;50.936;5.334;2023-04-01T05:15:21;14.07;;;6.15;;
25023;SDS011;13033;50.936;5.334;2023-04-01T05:17:47;15.70;;;7.18;;
25023;SDS011;13033;50.936;5.334;2023-04-01T05:20:13;12.80;;;6.43;;
25023;SDS011;13033;50.936;5.334;2023-04-01T05:22:39;13.13;;;6.68;;
25023;SDS011;13033;50.936;5.334;2023-04-01T05:25:05;12.82;;;6.65;;
25023;SDS011;13033;50.936;5.334;2023-04-01T05:27:31;11.93;;;5.38;;
25023;SDS011;13033;50.936;5.334;2023-04-01T05:29:57;14.48;;;6.72;;
25023;SDS011;13033;50.936;5.334;2023-04-01T05:32:23;15.68;;;6.90;;
25023;SDS011;13033;50.936;5.334;2023-04-01T05:34:53;12.73;;;6.32;;
25023;SDS011;13033;50.936;5.334;2023-04-01T05:37:19;16.75;;;6.95;;
25023;SDS011;13033;50.936;5.334;2023-04-01T05:39:45;11.85;;;6.05;;
25023;SDS011;13033;50.936;5.334;2023-04-01T05:42:10;12.80;;;6.53;;
25023;SDS011;13033;50.936;5.334;2023-04-01T05:44:36;10.88;;;5.70;;
25023;SDS011;13033;50.936;5.334;2023-04-01T05:47:03;8.40;;;5.72;;
25023;SDS011;13033;50.936;5.334;2023-04-01T05:49:29;10.43;;;6.00;;
25023;SDS011;13033;50.936;5.334;2023-04-01T05:51:55;10.15;;;5.95;;
25023;SDS011;13033;50.936;5.334;2023-04-01T05:54:21;9.70;;;5.68;;
25023;SDS011;13033;50.936;5.334;2023-04-01T05:56:47;11.10;;;5.60;;
25023;SDS011;13033;50.936;5.334;2023-04-01T05:59:12;8.57;;;4.97;;
25023;SDS011;13033;50.936;5.334;2023-04-01T06:01:38;10.05;;;5.13;;
25023;SDS011;13033;50.936;5.334;2023-04-01T06:04:04;8.77;;;4.78;;
25023;SDS011;13033;50.936;5.334;2023-04-01T06:06:30;7.72;;;4.32;;
25023;SDS011;13033;50.936;5.334;2023-04-01T06:08:58;7.65;;;4.20;;
25023;SDS011;13033;50.936;5.334;2023-04-01T06:11:55;7.65;;;4.30;;
25023;SDS011;13033;50.936;5.334;2023-04-01T06:15:03;5.97;;;3.90;;
25023;SDS011;13033;50.936;5.334;2023-04-01T06:26:17;7.57;;;3.08;;
25023;SDS011;13033;50.936;5.334;2023-04-01T06:36:59;5.18;;;3.45;;
25023;SDS011;13033;50.936;5.334;2023-04-01T06:45:20;5.32;;;3.70;;
25023;SDS011;13033;50.936;5.334;2023-04-01T06:53:49;4.57;;;2.50;;
25023;SDS011;13033;50.936;5.334;2023-04-01T06:56:40;3.63;;;2.30;;
25023;SDS011;13033;50.936;5.334;2023-04-01T06:59:18;2.80;;;2.40;;
25023;SDS011;13033;50.936;5.334;2023-04-01T07:01:55;3.22;;;2.10;;
25023;SDS011;13033;50.936;5.334;2023-04-01T07:04:29;3.75;;;1.75;;
25023;SDS011;13033;50.936;5.334;2023-04-01T07:09:41;1.48;;;1.38;;
25023;SDS011;13033;50.936;5.334;2023-04-01T07:12:15;3.03;;;1.60;;
25023;SDS011;13033;50.936;5.334;2023-04-01T07:14:51;2.17;;;1.35;;
25023;SDS011;13033;50.936;5.334;2023-04-01T07:17:20;1.98;;;1.65;;
25023;SDS011;13033;50.936;5.334;2023-04-01T07:19:58;2.75;;;1.70;;
25023;SDS011;13033;50.936;5.334;2023-04-01T07:22:31;2.42;;;1.50;;
25023;SDS011;13033;50.936;5.334;2023-04-01T07:25:07;1.83;;;1.20;;
25023;SDS011;13033;50.936;5.334;2023-04-01T07:27:38;2.85;;;1.40;;
25023;SDS011;13033;50.936;5.334;2023-04-01T07:30:06;3.13;;;1.50;;
25023;SDS011;13033;50.936;5.334;2023-04-01T07:35:30;1.83;;;1.40;;
25023;SDS011;13033;50.936;5.334;2023-04-01T07:43:30;2.90;;;1.70;;
25023;SDS011;13033;50.936;5.334;2023-04-01T07:48:55;3.38;;;1.42;;
25023;SDS011;13033;50.936;5.334;2023-04-01T07:52:29;1.42;;;1.30;;
25023;SDS011;13033;50.936;5.334;2023-04-01T07:57:16;1.77;;;1.33;;
25023;SDS011;13033;50.936;5.334;2023-04-01T08:00:11;1.75;;;1.52;;
25023;SDS011;13033;50.936;5.334;2023-04-01T08:02:43;3.28;;;1.30;;
25023;SDS011;13033;50.936;5.334;2023-04-01T08:13:16;1.58;;;1.25;;
25023;SDS011;13033;50.936;5.334;2023-04-01T08:21:20;1.48;;;1.27;;
25023;SDS011;13033;50.936;5.334;2023-04-01T08:23:51;2.40;;;1.95;;
25023;SDS011;13033;50.936;5.334;2023-04-01T08:29:02;2.55;;;1.90;;
25023;SDS011;13033;50.936;5.334;2023-04-01T08:34:23;2.45;;;1.77;;
25023;SDS011;13033;50.936;5.334;2023-04-01T08:36:52;2.22;;;1.60;;
25023;SDS011;13033;50.936;5.334;2023-04-01T08:39:32;3.22;;;1.55;;
25023;SDS011;13033;50.936;5.334;2023-04-01T08:47:34;3.28;;;1.77;;
25023;SDS011;13033;50.936;5.334;2023-04-01T08:56:17;3.15;;;1.88;;
25023;SDS011;13033;50.936;5.334;2023-04-01T09:07:13;2.78;;;1.92;;
25023;SDS011;13033;50.936;5.334;2023-04-01T09:23:38;3.60;;;1.77;;
25023;SDS011;13033;50.936;5.334;2023-04-01T09:40:25;3.88;;;2.20;;
25023;SDS011;13033;50.936;5.334;2023-04-01T09:46:06;2.20;;;1.85;;
25023;SDS011;13033;50.936;5.334;2023-04-01T09:51:43;3.05;;;1.38;;
25023;SDS011;13033;50.936;5.334;2023-04-01T10:23:04;3.53;;;1.75;;
25023;SDS011;13033;50.936;5.334;2023-04-01T10:25:57;3.08;;;2.10;;
25023;SDS011;13033;50.936;5.334;2023-04-01T10:52:15;2.72;;;2.47;;
25023;SDS011;13033;50.936;5.334;2023-04-01T10:58:01;3.50;;;3.20;;
25023;SDS011;13033;50.936;5.334;2023-04-01T11:12:08;4.15;;;3.72;;
25023;SDS011;13033;50.936;5.334;2023-04-01T11:14:48;3.60;;;3.30;;
25023;SDS011;13033;50.936;5.334;2023-04-01T11:23:54;6.78;;;4.93;;
25023;SDS011;13033;50.936;5.334;2023-04-01T11:29:55;7.53;;;6.70;;
25023;SDS011;13033;50.936;5.334;2023-04-01T11:32:54;9.52;;;7.55;;
25023;SDS011;13033;50.936;5.334;2023-04-01T11:40:42;9.18;;;7.22;;
25023;SDS011;13033;50.936;5.334;2023-04-01T12:03:21;10.45;;;7.97;;
25023;SDS011;13033;50.936;5.334;2023-04-01T12:06:03;10.73;;;8.23;;
25023;SDS011;13033;50.936;5.334;2023-04-01T12:14:12;7.25;;;5.97;;
25023;SDS011;13033;50.936;5.334;2023-04-01T12:17:16;8.45;;;5.43;;
25023;SDS011;13033;50.936;5.334;2023-04-01T12:23:03;5.07;;;4.32;;
25023;SDS011;13033;50.936;5.334;2023-04-01T12:28:25;5.75;;;3.13;;
25023;SDS011;13033;50.936;5.334;2023-04-01T12:31:35;4.43;;;3.03;;
25023;SDS011;13033;50.936;5.334;2023-04-01T12:36:38;3.25;;;2.95;;
25023;SDS011;13033;50.936;5.334;2023-04-01T12:56:14;5.78;;;5.03;;
25023;SDS011;13033;50.936;5.334;2023-04-01T13:04:22;8.48;;;6.95;;
25023;SDS011;13033;50.936;5.334;2023-04-01T13:07:05;8.70;;;6.93;;
25023;SDS011;13033;50.936;5.334;2023-04-01T13:12:38;7.95;;;6.18;;
25023;SDS011;13033;50.936;5.334;2023-04-01T13:29:18;7.35;;;5.25;;
25023;SDS011;13033;50.936;5.334;2023-04-01T13:35:46;6.82;;;5.07;;
25023;SDS011;13033;50.936;5.334;2023-04-01T13:40:36;7.35;;;5.38;;
25023;SDS011;13033;50.936;5.334;2023-04-01T13:43:19;5.28;;;4.35;;
25023;SDS011;13033;50.936;5.334;2023-04-01T13:46:08;6.72;;;5.53;;
25023;SDS011;13033;50.936;5.334;2023-04-01T14:06:11;8.85;;;6.95;;
25023;SDS011;13033;50.936;5.334;2023-04-01T14:11:38;7.95;;;6.43;;
25023;SDS011;13033;50.936;5.334;2023-04-01T14:41:27;4.40;;;2.75;;
25023;SDS011;13033;50.936;5.334;2023-04-01T14:44:17;3.45;;;2.42;;
25023;SDS011;13033;50.936;5.334;2023-04-01T14:47:25;3.88;;;3.40;;
25023;SDS011;13033;50.936;5.334;2023-04-01T14:50:45;3.20;;;2.40;;
25023;SDS011;13033;50.936;5.334;2023-04-01T14:53:26;3.08;;;2.60;;
25023;SDS011;13033;50.936;5.334;2023-04-01T14:56:03;3.63;;;2.60;;
25023;SDS011;13033;50.936;5.334;2023-04-01T14:58:45;2.72;;;2.40;;
25023;SDS011;13033;50.936;5.334;2023-04-01T15:06:56;2.70;;;2.20;;
25023;SDS011;13033;50.936;5.334;2023-04-01T15:28:39;3.75;;;2.97;;
25023;SDS011;13033;50.936;5.334;2023-04-01T15:31:37;3.25;;;2.47;;
25023;SDS011;13033;50.936;5.334;2023-04-01T15:48:39;3.40;;;3.10;;
25023;SDS011;13033;50.936;5.334;2023-04-01T16:40:22;4.22;;;3.83;;
25023;SDS011;13033;50.936;5.334;2023-04-01T16:43:07;3.33;;;2.42;;
25023;SDS011;13033;50.936;5.334;2023-04-01T16:48:24;5.47;;;3.13;;
25023;SDS011;13033;50.936;5.334;2023-04-01T16:51:14;4.20;;;3.45;;
25023;SDS011;13033;50.936;5.334;2023-04-01T16:53:43;5.28;;;4.03;;
25023;SDS011;13033;50.936;5.334;2023-04-01T16:56:36;6.75;;;5.18;;
25023;SDS011;13033;50.936;5.334;2023-04-01T17:02:02;6.50;;;5.28;;
25023;SDS011;13033;50.936;5.334;2023-04-01T17:07:41;7.97;;;6.00;;
25023;SDS011;13033;50.936;5.334;2023-04-01T17:18:49;10.88;;;8.48;;
25023;SDS011;13033;50.936;5.334;2023-04-01T17:21:07;11.13;;;9.02;;
25023;SDS011;13033;50.936;5.334;2023-04-01T17:23:43;39.50;;;23.77;;
25023;SDS011;13033;50.936;5.334;2023-04-01T17:26:26;46.67;;;26.08;;
25023;SDS011;13033;50.936;5.334;2023-04-01T17:28:58;10.95;;;8.95;;
25023;SDS011;13033;50.936;5.334;2023-04-01T17:53:27;6.13;;;5.20;;
25023;SDS011;13033;50.936;5.334;2023-04-01T17:56:02;7.03;;;5.63;;
25023;SDS011;13033;50.936;5.334;2023-04-01T18:04:34;9.13;;;7.18;;
25023;SDS011;13033;50.936;5.334;2023-04-01T18:21:27;12.93;;;10.48;;
25023;SDS011;13033;50.936;5.334;2023-04-01T18:24:26;14.75;;;11.20;;
25023;SDS011;13033;50.936;5.334;2023-04-01T18:29:32;12.32;;;9.50;;
25023;SDS011;13033;50.936;5.334;2023-04-01T18:32:22;10.98;;;8.52;;
25023;SDS011;13033;50.936;5.334;2023-04-01T18:35:16;9.00;;;7.38;;
25023;SDS011;13033;50.936;5.334;2023-04-01T18:40:42;10.57;;;8.82;;
25023;SDS011;13033;50.936;5.334;2023-04-01T18:43:16;10.20;;;7.72;;
25023;SDS011;13033;50.936;5.334;2023-04-01T18:46:07;13.30;;;9.65;;
25023;SDS011;13033;50.936;5.334;2023-04-01T18:48:43;9.65;;;8.07;;
25023;SDS011;13033;50.936;5.334;2023-04-01T18:51:16;14.73;;;9.75;;
25023;SDS011;13033;50.936;5.334;2023-04-01T18:53:54;13.20;;;9.43;;
25023;SDS011;13033;50.936;5.334;2023-04-01T18:59:05;15.13;;;11.00;;
25023;SDS011;13033;50.936;5.334;2023-04-01T19:05:04;14.63;;;10.82;;
25023;SDS011;13033;50.936;5.334;2023-04-01T19:10:12;14.15;;;11.80;;
25023;SDS011;13033;50.936;5.334;2023-04-01T19:13:05;15.18;;;11.15;;
25023;SDS011;13033;50.936;5.334;2023-04-01T19:54:22;18.08;;;13.55;;
25023;SDS011;13033;50.936;5.334;2023-04-01T19:56:52;20.52;;;14.25;;
25023;SDS011;13033;50.936;5.334;2023-04-01T19:59:34;21.23;;;15.07;;
25023;SDS011;13033;50.936;5.334;2023-04-01T20:02:26;18.48;;;13.48;;
25023;SDS011;13033;50.936;5.334;2023-04-01T20:05:21;19.65;;;14.50;;
25023;SDS011;13033;50.936;5.334;2023-04-01T20:08:12;21.60;;;15.05;;
25023;SDS011;13033;50.936;5.334;2023-04-01T20:13:28;24.40;;;15.75;;
25023;SDS011;13033;50.936;5.334;2023-04-01T20:16:00;22.40;;;15.40;;
25023;SDS011;13033;50.936;5.334;2023-04-01T20:26:36;28.20;;;18.02;;
25023;SDS011;13033;50.936;5.334;2023-04-01T20:31:58;27.08;;;18.90;;
25023;SDS011;13033;50.936;5.334;2023-04-01T20:37:53;32.03;;;19.60;;
25023;SDS011;13033;50.936;5.334;2023-04-01T20:40:44;30.77;;;19.20;;
25023;SDS011;13033;50.936;5.334;2023-04-01T20:48:40;32.47;;;20.40;;
25023;SDS011;13033;50.936;5.334;2023-04-01T20:51:15;28.47;;;18.27;;
25023;SDS011;13033;50.936;5.334;2023-04-01T20:54:05;27.40;;;17.98;;
25023;SDS011;13033;50.936;5.334;2023-04-01T21:01:45;23.45;;;13.93;;
25023;SDS011;13033;50.936;5.334;2023-04-01T21:07:05;18.52;;;12.85;;
25023;SDS011;13033;50.936;5.334;2023-04-01T21:20:04;15.50;;;10.75;;
25023;SDS011;13033;50.936;5.334;2023-04-01T21:31:25;16.05;;;10.75;;
25023;SDS011;13033;50.936;5.334;2023-04-01T21:34:28;15.02;;;10.50;;
25023;SDS011;13033;50.936;5.334;2023-04-01T21:42:41;14.23;;;9.73;;
25023;SDS011;13033;50.936;5.334;2023-04-01T21:48:02;16.23;;;11.18;;
25023;SDS011;13033;50.936;5.334;2023-04-01T21:56:50;18.13;;;11.70;;
25023;SDS011;13033;50.936;5.334;2023-04-01T22:05:07;19.05;;;13.65;;
25023;SDS011;13033;50.936;5.334;2023-04-01T22:10:05;17.77;;;12.35;;
25023;SDS011;13033;50.936;5.334;2023-04-01T22:21:15;15.13;;;11.23;;
25023;SDS011;13033;50.936;5.334;2023-04-01T22:26:45;14.13;;;9.55;;
25023;SDS011;13033;50.936;5.334;2023-04-01T22:32:23;11.52;;;8.93;;
25023;SDS011;13033;50.936;5.334;2023-04-01T22:34:56;13.82;;;9.70;;
25023;SDS011;13033;50.936;5.334;2023-04-01T22:37:47;15.50;;;10.77;;
25023;SDS011;13033;50.936;5.334;2023-04-01T22:40:57;16.73;;;10.77;;
25023;SDS011;13033;50.936;5.334;2023-04-01T22:43:39;15.00;;;9.82;;
25023;SDS011;13033;50.936;5.334;2023-04-01T22:46:19;11.80;;;9.05;;
25023;SDS011;13033;50.936;5.334;2023-04-01T22:52:08;14.30;;;10.27;;
25023;SDS011;13033;50.936;5.334;2023-04-01T22:54:46;14.00;;;10.90;;
25023;SDS011;13033;50.936;5.334;2023-04-01T23:03:00;15.25;;;11.07;;
25023;SDS011;13033;50.936;5.334;2023-04-01T23:11:04;15.35;;;11.45;;
25023;SDS011;13033;50.936;5.334;2023-04-01T23:13:34;15.70;;;11.57;;
25023;SDS011;13033;50.936;5.334;2023-04-01T23:16:07;17.38;;;12.43;;
25023;SDS011;13033;50.936;5.334;2023-04-01T23:18:35;18.45;;;13.25;;
25023;SDS011;13033;50.936;5.334;2023-04-01T23:27:03;17.58;;;12.95;;
25023;SDS011;13033;50.936;5.334;2023-04-01T23:29:36;16.50;;;12.10;;
25023;SDS011;13033;50.936;5.334;2023-04-01T23:32:04;14.65;;;11.23;;
25023;SDS011;13033;50.936;5.334;2023-04-01T23:34:38;15.38;;;11.43;;
25023;SDS011;13033;50.936;5.334;2023-04-01T23:37:05;14.88;;;11.35;;
25023;SDS011;13033;50.936;5.334;2023-04-01T23:39:35;17.42;;;12.18;;
25023;SDS011;13033;50.936;5.334;2023-04-01T23:45:05;18.38;;;12.38;;
25023;SDS011;13033;50.936;5.334;2023-04-01T23:47:42;17.10;;;12.45;;
25023;SDS011;13033;50.936;5.334;2023-04-01T23:50:18;15.30;;;11.40;;
25023;SDS011;13033;50.936;5.334;2023-04-01T23:52:46;14.93;;;10.73;;
25023;SDS011;13033;50.936;5.334;2023-04-01T23:57:40;12.63;;;9.30;;
